logo
Search for airport 
image banner adimage banner adimage banner ad
image banner ad

SGSSIL - Santa Silvia

Located in Capitan Gimenez, Paraguay

ICAO - , IATA -

Data provided by Airmate  

General information

Coordinates: S23°18'32" W56°53'1"
Elevation is 815 feet MSL.
Magnetic variation is -16° East
View others Airports in Amambay Department

Operational data

Special qualification required
Current time UTC:
Current local time:
TAF: TAF SGCO 161725Z 1618/1718 16003KT CAVOK TX22/1619Z TN13/1710Z BECMG 1703/1707 18006KT 7000 SCT020 BECMG 1708/1711 4000 BR NSC
View NOTAMs / SUP AIP / TFR affecting this airport [VIEW]
Communications frequencies: [VIEW]

Runways:

RWY identifierQFULength (ft)Width (ft)SurfaceLDA (ft)
0310°396298GRAS
21190°396298GRAS

Airport contact information

Address: Capitan Gimenez Paraguay

Satellite view of SGSSIL